| time (UTC) | temp C | wind direction | speed KPH | gust KPH | rain 1hr cm | rain 24hr cm | rain mn cm | humidity % | barometer mb |
| 20260506212200 | 20 | 241 | 6.4 | 6.4 | 0.00 | 0.00 | 0.00 | 75 | |
| 20260506211655 | 20 | 352 | 1.6 | 4.8 | 0.00 | 0.00 | 0.00 | 75 | |
| 20260506211152 | 20 | 323 | 1.6 | 11.3 | 0.00 | 0.00 | 0.00 | 75 | |
| 20260506210649 | 20 | 294 | 1.6 | 3.2 | 0.00 | 0.00 | 0.00 | 75 | |
| 20260506210146 | 20 | 182 | 3.2 | 6.4 | 0.00 | 0.00 | 0.00 | 76 | |
| 20260506205644 | 20 | 280 | 3.2 | 3.2 | 0.00 | 0.00 | 0.00 | 76 | |
| 20260506205143 | 20 | 258 | 3.2 | 6.4 | 0.00 | 0.00 | 0.00 | 76 | |
| 20260506204642 | 20 | 156 | 3.2 | 4.8 | 0.00 | 0.00 | 0.00 | 76 | |
| 20260506204138 | 20 | 248 | 1.6 | 6.4 | 0.00 | 0.00 | 0.00 | 76 | |
| 20260506203637 | 20 | 269 | 1.6 | 4.8 | 0.00 | 0.00 | 0.00 | 76 | |
| 20260506203133 | 20 | 319 | 0.0 | 3.2 | 0.00 | 0.00 | 0.00 | 76 | |
| 20260506202631 | 20 | 224 | 4.8 | 6.4 | 0.00 | 0.00 | 0.00 | 76 | |
| 20260506202127 | 20 | 262 | 6.4 | 12.9 | 0.00 | 0.00 | 0.00 | 77 | |
| 20260506201624 | 20 | 299 | 0.0 | 4.8 | 0.00 | 0.00 | 0.00 | 77 | |
| 20260506201120 | 19 | 237 | 3.2 | 6.4 | 0.00 | 0.00 | 0.00 | 77 | |
| 20260506200617 | 19 | 337 | 3.2 | 11.3 | 0.00 | 0.00 | 0.00 | 77 | |
| 20260506200114 | 19 | 294 | 3.2 | 12.9 | 0.00 | 0.00 | 0.00 | 78 | |
| 20260506195611 | 19 | 105 | 4.8 | 9.7 | 0.00 | 0.00 | 0.00 | 78 | |
| 20260506195107 | 19 | 234 | 4.8 | 9.7 | 0.00 | 0.00 | 0.00 | 79 | |
| 20260506194605 | 19 | 302 | 3.2 | 9.7 | 0.00 | 0.00 | 0.00 | 79 | |
| 20260506194101 | 18 | 191 | 4.8 | 9.7 | 0.00 | 0.00 | 0.00 | 80 | |
| 20260506193559 | 18 | 252 | 9.7 | 11.3 | 0.00 | 0.00 | 0.00 | 81 | |
| 20260506193056 | 18 | 235 | 12.9 | 16.1 | 0.00 | 0.00 | 0.00 | 82 | |
| 20260506192552 | 18 | 279 | 8.0 | 11.3 | 0.00 | 0.00 | 0.00 | 82 | |
| 20260506192048 | 18 | 277 | 4.8 | 12.9 | 0.00 | 0.00 | 0.00 | 83 | |
| 20260506191545 | 18 | 37 | 4.8 | 12.9 | 0.00 | 0.00 | 0.00 | 82 | |
| 20260506191041 | 18 | 275 | 11.3 | 20.9 | 0.00 | 0.00 | 0.00 | 83 | |
| 20260506190538 | 18 | 272 | 3.2 | 4.8 | 0.00 | 0.00 | 0.00 | 83 | |
| 20260506190035 | 18 | 216 | 6.4 | 9.7 | 0.00 | 0.00 | 0.00 | 82 | |
| 20260506185533 | 18 | 212 | 8.0 | 20.9 | 0.00 | 0.00 | 0.00 | 81 | |
| 20260506185029 | 18 | 320 | 6.4 | 20.9 | 0.00 | 0.00 | 0.00 | 80 | |
| 20260506184527 | 19 | 290 | 3.2 | 12.9 | 0.00 | 0.00 | 0.00 | 80 | |
| 20260506184024 | 19 | 195 | 3.2 | 4.8 | 0.00 | 0.00 | 0.00 | 80 | |
| 20260506183519 | 19 | 280 | 1.6 | 4.8 | 0.00 | 0.00 | 0.00 | 80 | |
| 20260506183016 | 19 | 147 | 1.6 | 4.8 | 0.00 | 0.00 | 0.00 | 80 | |
| 20260506182514 | 18 | 278 | 3.2 | 9.7 | 0.00 | 0.00 | 0.00 | 81 | |
| 20260506182010 | 18 | 181 | 3.2 | 4.8 | 0.00 | 0.00 | 0.00 | 81 | |
| 20260506181508 | 18 | 190 | 6.4 | 6.4 | 0.00 | 0.00 | 0.00 | 81 | |
| 20260506181005 | 18 | 243 | 3.2 | 6.4 | 0.00 | 0.00 | 0.00 | 82 | |
| 20260506180502 | 18 | 190 | 3.2 | 9.7 | 0.00 | 0.00 | 0.00 | 82 | |
| 20260506175958 | 18 | 194 | 3.2 | 9.7 | 0.00 | 0.00 | 0.00 | 83 | |
| 20260506175455 | 18 | 224 | 4.8 | 11.3 | 0.00 | 0.00 | 0.00 | 83 | |
| 20260506174951 | 18 | 150 | 8.0 | 11.3 | 0.00 | 0.00 | 0.00 | 83 | |
| 20260506174450 | 18 | 218 | 3.2 | 11.3 | 0.00 | 0.00 | 0.00 | 83 | |
| 20260506173946 | 18 | 254 | 1.6 | 3.2 | 0.00 | 0.00 | 0.00 | 83 | |
| 20260506173443 | 18 | 166 | 1.6 | 3.2 | 0.00 | 0.00 | 0.00 | 82 | |
| 20260506172940 | 18 | 114 | 3.2 | 4.8 | 0.00 | 0.00 | 0.00 | 82 | |
| 20260506172437 | 18 | 262 | 1.6 | 6.4 | 0.00 | 0.00 | 0.00 | 82 | |
| 20260506171934 | 18 | 170 | 4.8 | 6.4 | 0.00 | 0.00 | 0.00 | 82 | |
| 20260506171431 | 18 | 280 | 4.8 | 11.3 | 0.00 | 0.00 | 0.00 | 82 | |
| 20260506170929 | 18 | 218 | 1.6 | 6.4 | 0.00 | 0.00 | 0.00 | 82 | |
| 20260506170425 | 18 | 145 | 4.8 | 6.4 | 0.00 | 0.00 | 0.00 | 82 | |
| 20260506165924 | 18 | 271 | 3.2 | 4.8 | 0.00 | 0.00 | 0.00 | 81 | |
| 20260506165422 | 18 | 278 | 4.8 | 4.8 | 0.00 | 0.00 | 0.00 | 81 | |
| 20260506164918 | 17 | 254 | 3.2 | 4.8 | 0.00 | 0.00 | 0.00 | 81 | |
| 20260506164415 | 18 | 319 | 3.2 | 6.4 | 0.00 | 0.00 | 0.00 | 80 | |
| 20260506163913 | 18 | 321 | 3.2 | 4.8 | 0.00 | 0.00 | 0.00 | 79 | |
| 20260506163407 | 18 | 138 | 1.6 | 3.2 | 0.00 | 0.00 | 0.00 | 78 | |
| 20260506162902 | 18 | 204 | 1.6 | 4.8 | 0.00 | 0.00 | 0.00 | 77 | |
| 20260506162400 | 18 | 338 | 4.8 | 9.7 | 0.00 | 0.00 | 0.00 | 76 | |
| 20260506161857 | 19 | 131 | 4.8 | 6.4 | 0.00 | 0.00 | 0.00 | 75 | |
| 20260506161355 | 19 | 171 | 4.8 | 6.4 | 0.00 | 0.00 | 0.00 | 74 | |
| 20260506160852 | 20 | 253 | 1.6 | 4.8 | 0.00 | 0.00 | 0.00 | 73 | |
| 20260506160349 | 20 | 159 | 1.6 | 6.4 | 0.00 | 0.00 | 0.00 | 71 | |
| 20260506155848 | 20 | 317 | 1.6 | 6.4 | 0.00 | 0.00 | 0.00 | 70 | |
| 20260506155344 | 20 | 164 | 3.2 | 11.3 | 0.00 | 0.00 | 0.00 | 69 | |
| 20260506153502 | 21 | 305 | 3.2 | 6.4 | 0.00 | 0.00 | 0.00 | 69 | |
| 20260506152959 | 21 | 169 | 4.8 | 6.4 | 0.00 | 0.00 | 0.00 | 68 | |
| 20260506152456 | 20 | 308 | 0.0 | 4.8 | 0.00 | 0.00 | 0.00 | 69 | |
| 20260506151954 | 21 | 149 | 3.2 | 4.8 | 0.00 | 0.00 | 0.00 | 68 | |
| 20260506151451 | 21 | 215 | 3.2 | 4.8 | 0.00 | 0.00 | 0.00 | 68 | |
| 20260506150949 | 21 | 252 | 0.0 | 4.8 | 0.00 | 0.00 | 0.00 | 67 | |
| 20260506150444 | 21 | 262 | 1.6 | 9.7 | 0.00 | 0.00 | 0.00 | 64 | |
| 20260506145942 | 21 | 137 | 3.2 | 17.7 | 0.00 | 0.00 | 0.00 | 67 | |
| 20260506145438 | 20 | 154 | 1.6 | 4.8 | 0.00 | 0.00 | 0.00 | 70 | |
| 20260506144936 | 20 | 154 | 3.2 | 6.4 | 0.00 | 0.00 | 0.00 | 69 | |
| 20260506144432 | 20 | 295 | 1.6 | 9.7 | 0.00 | 0.00 | 0.00 | 67 | |
| 20260506143930 | 21 | 177 | 4.8 | 9.7 | 0.00 | 0.00 | 0.00 | 63 | |
| 20260506143427 | 22 | 153 | 6.4 | 14.5 | 0.00 | 0.00 | 0.00 | 60 | |
| 20260506142925 | 22 | 113 | 6.4 | 11.3 | 0.00 | 0.00 | 0.00 | 58 | |
| 20260506142423 | 22 | 223 | 3.2 | 14.5 | 0.00 | 0.00 | 0.00 | 59 | |
| 20260506141921 | 22 | 243 | 4.8 | 12.9 | 0.00 | 0.00 | 0.00 | 59 | |
| 20260506141419 | 22 | 181 | 3.2 | 12.9 | 0.00 | 0.00 | 0.00 | 59 | |
| 20260506140917 | 22 | 234 | 4.8 | 12.9 | 0.00 | 0.00 | 0.00 | 60 | |
| 20260506140413 | 22 | 330 | 1.6 | 4.8 | 0.00 | 0.00 | 0.00 | 60 | |
| 20260506135911 | 22 | 151 | 6.4 | 11.3 | 0.00 | 0.00 | 0.00 | 60 | |
| 20260506135408 | 22 | 144 | 9.7 | 14.5 | 0.00 | 0.00 | 0.00 | 59 | |
| 20260506134904 | 22 | 330 | 4.8 | 9.7 | 0.00 | 0.00 | 0.00 | 60 | |
| 20260506134400 | 22 | 309 | 3.2 | 9.7 | 0.00 | 0.00 | 0.00 | 61 | |
| 20260506133857 | 22 | 227 | 6.4 | 14.5 | 0.00 | 0.00 | 0.00 | 61 | |
| 20260506133353 | 22 | 243 | 6.4 | 12.9 | 0.00 | 0.00 | 0.00 | 62 | |
| 20260506132850 | 22 | 239 | 6.4 | 9.7 | 0.00 | 0.00 | 0.00 | 63 | |
| 20260506132347 | 21 | 225 | 8.0 | 16.1 | 0.00 | 0.00 | 0.00 | 63 | |
| 20260506131846 | 21 | 287 | 6.4 | 16.1 | 0.00 | 0.00 | 0.00 | 64 | |
| 20260506131341 | 21 | 184 | 4.8 | 14.5 | 0.00 | 0.00 | 0.00 | 65 | |
| 20260506130839 | 21 | 142 | 1.6 | 3.2 | 0.00 | 0.00 | 0.00 | 66 | |
| 20260506130335 | 21 | 246 | 11.3 | 16.1 | 0.00 | 0.00 | 0.00 | 67 | |
| 20260506125833 | 20 | 242 | 4.8 | 4.8 | 0.00 | 0.00 | 0.00 | 68 | |
| 20260506125331 | 20 | 241 | 1.6 | 9.7 | 0.00 | 0.00 | 0.00 | 70 | |
| 20260506124829 | 20 | 237 | 6.4 | 11.3 | 0.00 | 0.00 | 0.00 | 71 | |
| 20260506124326 | 19 | 228 | 3.2 | 11.3 | 0.00 | 0.00 | 0.00 | 72 | |
| 20260506123823 | 18 | 239 | 3.2 | 6.4 | 0.00 | 0.00 | 0.00 | 72 | |
| 20260506123322 | 18 | 232 | 6.4 | 9.7 | 0.00 | 0.00 | 0.00 | 72 | |
| 20260506122819 | 18 | 313 | 8.0 | 11.3 | 0.00 | 0.00 | 0.00 | 72 | |
| 20260506122316 | 18 | 263 | 3.2 | 4.8 | 0.00 | 0.00 | 0.00 | 72 | |
| 20260506121814 | 18 | 121 | 6.4 | 9.7 | 0.00 | 0.00 | 0.00 | 72 | |
| 20260506121310 | 18 | 237 | 4.8 | 9.7 | 0.00 | 0.00 | 0.00 | 72 | |
| 20260506120808 | 18 | 221 | 4.8 | 11.3 | 0.00 | 0.00 | 0.00 | 72 | |
| 20260506120305 | 18 | 245 | 4.8 | 9.7 | 0.00 | 0.00 | 0.00 | 72 | |
| 20260506115803 | 18 | 255 | 3.2 | 4.8 | 0.00 | 0.00 | 0.00 | 72 | |
| 20260506115301 | 18 | 130 | 6.4 | 11.3 | 0.00 | 0.00 | 0.00 | 73 | |
| 20260506114758 | 18 | 224 | 8.0 | 9.7 | 0.00 | 0.00 | 0.00 | 73 | |
| 20260506114256 | 18 | 226 | 4.8 | 12.9 | 0.00 | 0.00 | 0.00 | 74 | |
| 20260506113754 | 18 | 238 | 9.7 | 16.1 | 0.00 | 0.00 | 0.00 | 75 | |
| 20260506113251 | 18 | 206 | 6.4 | 9.7 | 0.00 | 0.00 | 0.00 | 75 | |
| 20260506112748 | 17 | 294 | 1.6 | 3.2 | 0.00 | 0.00 | 0.00 | 76 | |
| 20260506112245 | 17 | 250 | 4.8 | 12.9 | 0.00 | 0.00 | 0.00 | 76 | |
| 20260506111742 | 17 | 261 | 4.8 | 9.7 | 0.00 | 0.00 | 0.00 | 76 | |
| 20260506111241 | 17 | 234 | 8.0 | 11.3 | 0.00 | 0.00 | 0.00 | 77 | |
| 20260506110737 | 17 | 350 | 3.2 | 9.7 | 0.00 | 0.00 | 0.00 | 78 | |
| 20260506110235 | 17 | 243 | 3.2 | 17.7 | 0.00 | 0.00 | 0.00 | 79 | |
| 20260506105731 | 17 | 263 | 4.8 | 6.4 | 0.00 | 0.00 | 0.00 | 79 | |
| 20260506105228 | 17 | 235 | 6.4 | 12.9 | 0.00 | 0.00 | 0.00 | 79 | |
| 20260506104726 | 16 | 234 | 8.0 | 12.9 | 0.00 | 0.00 | 0.00 | 80 | |
| 20260506104224 | 16 | 240 | 6.4 | 12.9 | 0.00 | 0.00 | 0.00 | 80 | |
| 20260506103721 | 16 | 228 | 3.2 | 11.3 | 0.00 | 0.00 | 0.00 | 80 | |
| 20260506103218 | 16 | 204 | 3.2 | 3.2 | 0.00 | 0.00 | 0.00 | 80 | |
| 20260506102716 | 16 | 96 | 3.2 | 6.4 | 0.00 | 0.00 | 0.00 | 80 | |
| 20260506102213 | 16 | 268 | 1.6 | 6.4 | 0.00 | 0.00 | 0.00 | 80 | |
| 20260506101710 | 16 | 226 | 6.4 | 9.7 | 0.00 | 0.00 | 0.00 | 80 | |
| 20260506101206 | 16 | 264 | 4.8 | 11.3 | 0.00 | 0.00 | 0.00 | 80 | |
| 20260506100705 | 16 | 238 | 3.2 | 11.3 | 0.00 | 0.00 | 0.00 | 80 | |
| 20260506100202 | 16 | 261 | 1.6 | 6.4 | 0.00 | 0.00 | 0.00 | 80 | |
| 20260506095701 | 16 | 104 | 3.2 | 9.7 | 0.00 | 0.00 | 0.00 | 80 | |
| 20260506095157 | 16 | 84 | 1.6 | 9.7 | 0.00 | 0.00 | 0.00 | 80 | |
| 20260506094654 | 16 | 267 | 3.2 | 9.7 | 0.00 | 0.00 | 0.00 | 80 | |
| 20260506094152 | 16 | 178 | 3.2 | 4.8 | 0.00 | 0.00 | 0.00 | 80 | |
| 20260506093651 | 16 | 311 | 3.2 | 12.9 | 0.00 | 0.00 | 0.00 | 80 | |
| 20260506093147 | 16 | 285 | 4.8 | 6.4 | 0.00 | 0.00 | 0.00 | 80 | |
| 20260506092645 | 16 | 243 | 4.8 | 9.7 | 0.00 | 0.00 | 0.00 | 80 | |
| 20260506092142 | 16 | 120 | 3.2 | 6.4 | 0.00 | 0.00 | 0.00 | 80 | |
| 20260506091640 | 16 | 254 | 8.0 | 12.9 | 0.00 | 0.00 | 0.00 | 80 | |
| 20260506091137 | 16 | 259 | 4.8 | 14.5 | 0.00 | 0.00 | 0.00 | 80 | |
| 20260506090635 | 16 | 244 | 4.8 | 6.4 | 0.00 | 0.00 | 0.00 | 80 | |
| 20260506090131 | 16 | 224 | 4.8 | 6.4 | 0.00 | 0.00 | 0.00 | 80 | |
| 20260506085628 | 16 | 245 | 4.8 | 9.7 | 0.00 | 0.00 | 0.00 | 80 | |
| 20260506085124 | 16 | 223 | 1.6 | 4.8 | 0.00 | 0.00 | 0.00 | 80 | |
| 20260506084621 | 16 | 243 | 4.8 | 11.3 | 0.00 | 0.00 | 0.00 | 80 | |
| 20260506084118 | 16 | 90 | 1.6 | 3.2 | 0.00 | 0.00 | 0.00 | 80 | |
| 20260506083615 | 16 | 289 | 4.8 | 4.8 | 0.00 | 0.00 | 0.00 | 80 | |
| 20260506083113 | 17 | 323 | 0.0 | 4.8 | 0.00 | 0.00 | 0.00 | 79 | |
| 20260506082609 | 17 | 314 | 0.0 | 3.2 | 0.00 | 0.00 | 0.00 | 79 | |
| 20260506082105 | 17 | 240 | 8.0 | 11.3 | 0.00 | 0.00 | 0.00 | 79 | |
| 20260506081603 | 17 | 328 | 3.2 | 9.7 | 0.00 | 0.00 | 0.00 | 79 | |
| 20260506081100 | 17 | 205 | 4.8 | 6.4 | 0.00 | 0.00 | 0.00 | 79 | |
| 20260506080558 | 17 | 255 | 1.6 | 4.8 | 0.00 | 0.00 | 0.00 | 78 | 1014.2 |
| 20260506073038 | 17 | 266 | 0.0 | 6.4 | 0.00 | 0.00 | 0.00 | 78 | 1014.2 |
| 20260506072535 | 17 | 281 | 3.2 | 6.4 | 0.00 | 0.00 | 0.00 | 78 | 1014.2 |
| 20260506072033 | 17 | 246 | 6.4 | 9.7 | 0.00 | 0.00 | 0.00 | 78 | 1014.2 |
| 20260506071531 | 17 | 274 | 6.4 | 9.7 | 0.00 | 0.00 | 0.00 | 77 | 1014.2 |
| 20260506071028 | 17 | 240 | 3.2 | 6.4 | 0.00 | 0.00 | 0.00 | 77 | 1014.1 |
| 20260506070525 | 17 | 307 | 4.8 | 9.7 | 0.00 | 0.00 | 0.00 | 77 | 1014.2 |
| 20260506062502 | 17 | 222 | 3.2 | 12.9 | 0.00 | 0.00 | 0.00 | 77 | 1013.9 |
| 20260506061959 | 17 | 285 | 4.8 | 9.7 | 0.00 | 0.00 | 0.00 | 77 | 1013.9 |
| 20260506061455 | 17 | 257 | 3.2 | 12.9 | 0.00 | 0.00 | 0.00 | 76 | 1014.0 |
| 20260506060953 | 17 | 272 | 4.8 | 6.4 | 0.00 | 0.00 | 0.00 | 76 | 1014.0 |
| 20260506060451 | 17 | 244 | 3.2 | 6.4 | 0.00 | 0.00 | 0.00 | 76 | 1014.0 |
| 20260506050920 | 17 | 289 | 3.2 | 11.3 | 0.00 | 0.00 | 0.00 | 73 | 1014.3 |
| 20260506050417 | 18 | 271 | 4.8 | 6.4 | 0.00 | 0.00 | 0.00 | 73 | 1014.5 |
| 20260506044908 | 18 | 151 | 3.2 | 6.4 | 0.00 | 0.00 | 0.00 | 72 | 1014.5 |
| 20260506044406 | 18 | 307 | 1.6 | 14.5 | 0.00 | 0.00 | 0.00 | 71 | 1014.6 |
| 20260506043903 | 18 | 214 | 3.2 | 9.7 | 0.00 | 0.00 | 0.00 | 71 | 1014.6 |
| 20260506043400 | 18 | 263 | 4.8 | 4.8 | 0.00 | 0.00 | 0.00 | 71 | 1014.6 |
| 20260506042858 | 18 | 331 | 1.6 | 4.8 | 0.00 | 0.00 | 0.00 | 71 | 1014.7 |
| 20260506042357 | 18 | 312 | 3.2 | 4.8 | 0.00 | 0.00 | 0.00 | 70 | 1014.6 |
| 20260506041855 | 18 | 243 | 4.8 | 6.4 | 0.00 | 0.00 | 0.00 | 70 | 1014.5 |
| 20260506041354 | 18 | 242 | 8.0 | 11.3 | 0.00 | 0.00 | 0.00 | 70 | 1014.5 |
| 20260506040849 | 18 | 262 | 3.2 | 6.4 | 0.00 | 0.00 | 0.00 | 70 | 1014.6 |
| 20260506040346 | 18 | 256 | 1.6 | 6.4 | 0.00 | 0.00 | 0.00 | 70 | 1014.7 |
| 20260506035842 | 18 | 203 | 4.8 | 6.4 | 0.00 | 0.00 | 0.00 | 69 | 1014.5 |
| 20260506035340 | 18 | 289 | 1.6 | 6.4 | 0.00 | 0.00 | 0.00 | 69 | 1014.7 |
| 20260506034837 | 18 | 150 | 3.2 | 4.8 | 0.00 | 0.00 | 0.00 | 69 | 1014.7 |
| 20260506034334 | 18 | 138 | 3.2 | 4.8 | 0.00 | 0.00 | 0.00 | 69 | 1014.5 |
| 20260506033831 | 18 | 276 | 1.6 | 4.8 | 0.00 | 0.00 | 0.00 | 69 | 1014.7 |
| 20260506033328 | 18 | 260 | 3.2 | 12.9 | 0.00 | 0.00 | 0.00 | 68 | 1014.6 |
| 20260506032824 | 19 | 126 | 3.2 | 4.8 | 0.00 | 0.00 | 0.00 | 68 | 1014.5 |
| 20260506032321 | 19 | 276 | 6.4 | 11.3 | 0.00 | 0.00 | 0.00 | 68 | 1014.4 |
| 20260506031818 | 19 | 97 | 6.4 | 6.4 | 0.00 | 0.00 | 0.00 | 68 | 1014.6 |
| 20260506031316 | 19 | 237 | 6.4 | 12.9 | 0.00 | 0.00 | 0.00 | 68 | 1014.6 |
| 20260506030813 | 19 | 247 | 3.2 | 9.7 | 0.00 | 0.00 | 0.00 | 68 | 1014.5 |
| 20260506030311 | 19 | 294 | 4.8 | 6.4 | 0.00 | 0.00 | 0.00 | 67 | 1014.6 |
| 20260506025808 | 19 | 218 | 4.8 | 14.5 | 0.00 | 0.00 | 0.00 | 67 | 1014.6 |
| 20260506025305 | 19 | 264 | 3.2 | 9.7 | 0.00 | 0.00 | 0.00 | 67 | 1014.9 |
| 20260506024801 | 19 | 257 | 6.4 | 9.7 | 0.00 | 0.00 | 0.00 | 67 | 1014.6 |
| 20260506024258 | 19 | 175 | 4.8 | 14.5 | 0.00 | 0.00 | 0.00 | 67 | 1014.7 |
| 20260506023754 | 20 | 264 | 4.8 | 9.7 | 0.00 | 0.00 | 0.00 | 67 | 1014.7 |
| 20260506023251 | 20 | 343 | 3.2 | 11.3 | 0.00 | 0.00 | 0.00 | 67 | 1014.7 |
| 20260506022747 | 20 | 229 | 6.4 | 16.1 | 0.00 | 0.00 | 0.00 | 66 | 1014.5 |
| 20260506022246 | 20 | 204 | 3.2 | 6.4 | 0.00 | 0.00 | 0.00 | 66 | 1014.9 |
| 20260506021744 | 20 | 262 | 12.9 | 20.9 | 0.00 | 0.00 | 0.00 | 66 | 1014.8 |
| 20260506021240 | 20 | 210 | 8.0 | 12.9 | 0.00 | 0.00 | 0.00 | 65 | 1014.8 |
| 20260506020737 | 20 | 210 | 8.0 | 20.9 | 0.00 | 0.00 | 0.00 | 65 | 1014.9 |
| 20260506020235 | 20 | 135 | 0.0 | 12.9 | 0.00 | 0.00 | 0.00 | 65 | 1014.7 |
| 20260506015732 | 20 | 273 | 6.4 | 11.3 | 0.00 | 0.00 | 0.00 | 64 | 1014.7 |
| 20260506015230 | 20 | 159 | 6.4 | 20.9 | 0.00 | 0.00 | 0.00 | 64 | 1014.7 |
| 20260506014726 | 20 | 181 | 9.7 | 14.5 | 0.00 | 0.00 | 0.00 | 63 | 1014.6 |
| 20260506014222 | 20 | 216 | 6.4 | 12.9 | 0.00 | 0.00 | 0.00 | 63 | 1014.6 |
| 20260506013720 | 20 | 247 | 3.2 | 11.3 | 0.00 | 0.00 | 0.00 | 62 | 1014.5 |
| 20260506013217 | 20 | 153 | 8.0 | 12.9 | 0.00 | 0.00 | 0.00 | 62 | 1014.4 |
| 20260506012713 | 20 | 226 | 8.0 | 11.3 | 0.00 | 0.00 | 0.00 | 61 | 1014.6 |
| 20260506012210 | 20 | 228 | 4.8 | 11.3 | 0.00 | 0.00 | 0.00 | 61 | 1014.5 |
| 20260506011708 | 20 | 58 | 3.2 | 14.5 | 0.00 | 0.00 | 0.00 | 61 | 1014.5 |
| 20260506011204 | 20 | 317 | 1.6 | 6.4 | 0.00 | 0.00 | 0.00 | 60 | 1014.3 |
| 20260506010702 | 20 | 246 | 3.2 | 9.7 | 0.00 | 0.00 | 0.00 | 60 | 1014.4 |
| 20260506010159 | 20 | 216 | 4.8 | 6.4 | 0.00 | 0.00 | 0.00 | 59 | 1014.2 |
| 20260506005656 | 20 | 228 | 1.6 | 6.4 | 0.00 | 0.00 | 0.00 | 59 | 1014.2 |
| 20260506005153 | 20 | 161 | 6.4 | 9.7 | 0.00 | 0.00 | 0.00 | 59 | 1014.1 |
| 20260506004649 | 20 | 133 | 3.2 | 6.4 | 0.00 | 0.00 | 0.00 | 58 | 1014.0 |
| 20260506004146 | 20 | 302 | 3.2 | 11.3 | 0.00 | 0.00 | 0.00 | 58 | 1013.9 |
| 20260506003642 | 21 | 214 | 3.2 | 14.5 | 0.00 | 0.00 | 0.00 | 58 | 1013.9 |
| 20260506003139 | 21 | 207 | 8.0 | 12.9 | 0.00 | 0.00 | 0.00 | 58 | 1014.0 |
| 20260506002635 | 21 | 297 | 1.6 | 9.7 | 0.00 | 0.00 | 0.00 | 57 | 1014.0 |
| 20260506002131 | 21 | 263 | 4.8 | 9.7 | 0.00 | 0.00 | 0.00 | 57 | 1013.9 |
| 20260506001627 | 21 | 240 | 6.4 | 12.9 | 0.00 | 0.00 | 0.00 | 56 | 1013.8 |
| 20260506001125 | 21 | 214 | 4.8 | 6.4 | 0.00 | 0.00 | 0.00 | 56 | 1013.9 |
| 20260506000622 | 21 | 261 | 8.0 | 11.3 | 0.00 | 0.00 | 0.00 | 56 | 1013.6 |
| 20260506000119 | 21 | 304 | 6.4 | 11.3 | 0.00 | 0.00 | 0.00 | 56 | 1013.5 |
| 20260505235617 | 21 | 301 | 1.6 | 9.7 | 0.00 | 0.00 | 0.00 | 56 | 1013.8 |
| 20260505235114 | 21 | 346 | 1.6 | 16.1 | 0.00 | 0.00 | 0.00 | 56 | 1013.7 |
| 20260505234611 | 21 | 258 | 6.4 | 11.3 | 0.00 | 0.00 | 0.00 | 56 | 1013.4 |
| 20260505234107 | 21 | 274 | 6.4 | 6.4 | 0.00 | 0.00 | 0.00 | 56 | 1013.6 |
| 20260505233605 | 22 | 130 | 3.2 | 9.7 | 0.00 | 0.00 | 0.00 | 55 | 1013.3 |
| 20260505233102 | 22 | 247 | 3.2 | 12.9 | 0.00 | 0.00 | 0.00 | 55 | 1013.4 |
| 20260505232600 | 22 | 121 | 4.8 | 11.3 | 0.00 | 0.00 | 0.00 | 54 | 1013.1 |
| 20260505232057 | 22 | 218 | 3.2 | 9.7 | 0.00 | 0.00 | 0.00 | 54 | 1013.0 |
| 20260505231554 | 22 | 255 | 4.8 | 6.4 | 0.00 | 0.00 | 0.00 | 53 | 1013.1 |
| 20260505231053 | 22 | 320 | 3.2 | 11.3 | 0.00 | 0.00 | 0.00 | 53 | 1013.0 |
| 20260505230550 | 22 | 239 | 8.0 | 11.3 | 0.00 | 0.00 | 0.00 | 53 | 1013.0 |
| 20260505230046 | 22 | 287 | 1.6 | 9.7 | 0.00 | 0.00 | 0.00 | 53 | 1012.8 |
| 20260505225543 | 22 | 246 | 3.2 | 11.3 | 0.00 | 0.00 | 0.00 | 54 | 1012.6 |
| 20260505225039 | 22 | 303 | 3.2 | 11.3 | 0.00 | 0.00 | 0.00 | 54 | 1012.6 |
| 20260505224536 | 22 | 221 | 3.2 | 6.4 | 0.00 | 0.00 | 0.00 | 53 | 1012.5 |
| 20260505224033 | 23 | 277 | 3.2 | 6.4 | 0.00 | 0.00 | 0.00 | 53 | 1012.6 |
| 20260505223530 | 23 | 265 | 11.3 | 17.7 | 0.00 | 0.00 | 0.00 | 52 | 1012.4 |
| 20260505223026 | 23 | 265 | 3.2 | 9.7 | 0.00 | 0.00 | 0.00 | 53 | 1012.7 |
| 20260505222523 | 23 | 322 | 3.2 | 9.7 | 0.00 | 0.00 | 0.00 | 53 | 1012.6 |
| 20260505222019 | 23 | 192 | 6.4 | 12.9 | 0.00 | 0.00 | 0.00 | 52 | 1012.4 |
| 20260505221517 | 23 | 235 | 4.8 | 6.4 | 0.00 | 0.00 | 0.00 | 52 | 1012.4 |
| 20260505221013 | 23 | 240 | 4.8 | 11.3 | 0.00 | 0.00 | 0.00 | 53 | 1012.4 |
| 20260505220510 | 23 | 254 | 4.8 | 14.5 | 0.00 | 0.00 | 0.00 | 53 | 1012.4 |
| 20260505220008 | 23 | 242 | 6.4 | 9.7 | 0.00 | 0.00 | 0.00 | 53 | 1012.4 |
| 20260505215506 | 23 | 229 | 3.2 | 12.9 | 0.00 | 0.00 | 0.00 | 52 | 1012.2 |
| 20260505215003 | 23 | 269 | 1.6 | 11.3 | 0.00 | 0.00 | 0.00 | 53 | 1012.2 |
| 20260505214502 | 23 | 210 | 8.0 | 9.7 | 0.00 | 0.00 | 0.00 | 54 | 1012.3 |
| 20260505213958 | 23 | 138 | 4.8 | 9.7 | 0.00 | 0.00 | 0.00 | 54 | 1012.1 |
| 20260505213456 | 23 | 248 | 3.2 | 6.4 | 0.00 | 0.00 | 0.00 | 55 | 1012.2 |
| 20260505212952 | 23 | 209 | 6.4 | 11.3 | 0.00 | 0.00 | 0.00 | 55 | 1012.1 |
| 20260505212448 | 23 | 148 | 4.8 | 12.9 | 0.00 | 0.00 | 0.00 | 55 | 1012.0 |